Weather History for KSYF - May, 2014

Change the Weather History Date:

Thursday, May 15, 2014

  Actual Average Record
Temperature  
Mean Temperature 49 °F -  
Max Temperature 64 °F 77 °F 86 °F (2013)
Min Temperature 35 °F 45 °F 35 °F (2014)
Degree Days  
Heating Degree Days 16    
Moisture  
Dew Point 28 °F    
Average Humidity 55    
Maximum Humidity 90    
Minimum Humidity 15    
Precipitation  
Precipitation 0.00 in - - ()
Sea Level Pressure  
Sea Level Pressure 30.21 in    
Wind  
Wind Speed 6 mph (NW)    
Max Wind Speed 18 mph    
Max Gust Speed 29 mph    
Visibility 10 miles    
Events      
Averages and records for this station are not official NWS values.
T = Trace of Precipitation, MM = Missing Value Source: NWS Daily Summary

Daily Weather History Graph

Daily Weather History Graph

Search for Another Location

Airport or City:

Trip Planner

Search our weather history database for the weather conditions in past years. The results will help you decide how hot, cold, wet, or windy it might be!

Date:

Astronomy

May. 15, 2014 Rise Set
Actual Time 6:32 AM CDT 8:55 PM CDT
Civil Twilight 6:02 AM CDT 9:25 PM CDT
Nautical Twilight 5:24 AM CDT 10:03 PM CDT
Astronomical Twilight 4:42 AM CDT 10:45 PM CDT
Moon 10:05 PM CDT (5/15) 7:21 AM CDT (5/15)
Length of Visible Light 15h 23m
Length of Day
14h 22m
Full, 99% of the Moon is Illuminated
May 15
Full
May 21
Last Quarter
May 28
New
Jun 5
First Quarter
Jun 12
Full

Hourly Weather History & Observations

Time (CDT) Temp. Windchill Dew Point Humidity Pressure Visibility Wind Dir Wind Speed Gust Speed Precip Events Conditions
12:15 AM 39.2 °F 35.9 °F 35.2 °F 86% 30.29 in 10.0 mi WNW 4.6 mph - N/A   Clear
12:35 AM 38.8 °F - 34.5 °F 84% 30.28 in 10.0 mi Calm Calm - N/A   Clear
12:55 AM 38.3 °F 33.2 °F 34.7 °F 87% 30.28 in 10.0 mi SW 6.9 mph - N/A   Clear
1:15 AM 37.8 °F 31.8 °F 34.5 °F 88% 30.28 in 10.0 mi SW 8.1 mph - N/A   Clear
1:35 AM 36.5 °F 31.8 °F 33.8 °F 90% 30.28 in 10.0 mi SW 5.8 mph - N/A   Clear
1:55 AM 37.2 °F 31.9 °F 33.8 °F 87% 30.29 in 10.0 mi SW 6.9 mph - N/A   Clear
2:15 AM 36.9 °F 30.7 °F 33.6 °F 88% 30.28 in 10.0 mi SW 8.1 mph - N/A   Clear
2:35 AM 36.3 °F 33.7 °F 33.1 °F 88% 30.28 in 10.0 mi SW 3.5 mph - N/A   Clear
2:55 AM 37.0 °F 33.3 °F 34.0 °F 89% 30.27 in 10.0 mi SW 4.6 mph - N/A   Clear
3:15 AM 37.0 °F 33.3 °F 33.8 °F 88% 30.27 in 10.0 mi WSW 4.6 mph - N/A   Clear
3:35 AM 37.0 °F 32.4 °F 33.8 °F 88% 30.26 in 10.0 mi WSW 5.8 mph - N/A   Clear
3:55 AM 38.5 °F 33.4 °F 34.0 °F 84% 30.26 in 10.0 mi West 6.9 mph - N/A   Clear
4:15 AM 40.1 °F 38.0 °F 34.2 °F 79% 30.26 in 10.0 mi WSW 3.5 mph - N/A   Scattered Clouds
4:35 AM 37.6 °F 35.1 °F 34.0 °F 87% 30.25 in 10.0 mi SSW 3.5 mph - N/A   Scattered Clouds
4:55 AM 38.3 °F 34.8 °F 34.0 °F 84% 30.25 in 10.0 mi SSW 4.6 mph - N/A   Scattered Clouds
5:15 AM 36.5 °F - 32.7 °F 86% 30.24 in 10.0 mi Calm Calm - N/A   Mostly Cloudy
5:35 AM 36.7 °F 32.9 °F 33.3 °F 87% 30.24 in 10.0 mi SSW 4.6 mph - N/A   Scattered Clouds
5:55 AM 36.1 °F 31.4 °F 32.9 °F 88% 30.24 in 10.0 mi SSW 5.8 mph - N/A   Scattered Clouds
6:15 AM 35.4 °F 29.0 °F 32.0 °F 87% 30.24 in 10.0 mi SW 8.1 mph - N/A   Scattered Clouds
6:35 AM 35.4 °F - 31.8 °F 87% 30.24 in 10.0 mi Calm Calm - N/A   Clear
6:55 AM 36.9 °F 33.1 °F 33.4 °F 87% 30.24 in 10.0 mi WSW 4.6 mph - N/A   Clear
7:15 AM 35.1 °F 32.2 °F 32.0 °F 89% 30.24 in 10.0 mi SW 3.5 mph - N/A   Clear
7:35 AM 35.8 °F - 33.1 °F 90% 30.24 in 10.0 mi Calm Calm - N/A   Clear
7:55 AM 38.3 °F - 34.7 °F 87% 30.24 in 10.0 mi Calm Calm - N/A   Scattered Clouds
8:15 AM 37.0 °F 32.4 °F 34.0 °F 89% 30.24 in 10.0 mi SSE 5.8 mph - N/A   Mostly Cloudy
8:35 AM 41.0 °F 38.0 °F 37.4 °F 87% 30.23 in 10.0 mi South 4.6 mph - N/A   Scattered Clouds
8:55 AM 43.0 °F - 37.4 °F 81% 30.25 in 10.0 mi Calm Calm - N/A   Clear
9:15 AM 45.1 °F - 38.3 °F 77% 30.24 in 10.0 mi Calm Calm - N/A   Scattered Clouds
9:35 AM 45.0 °F - 38.1 °F 77% 30.24 in 10.0 mi Calm Calm - N/A   Scattered Clouds
9:55 AM 47.3 °F - 38.5 °F 71% 30.24 in 10.0 mi SSW 3.5 mph - N/A   Clear
10:15 AM 49.6 °F - 38.7 °F 66% 30.24 in 10.0 mi Calm Calm - N/A   Clear
10:35 AM 49.8 °F - 36.9 °F 61% 30.24 in 10.0 mi Calm Calm - N/A   Clear
10:55 AM 51.1 °F - 37.2 °F 59% 30.24 in 10.0 mi Calm Calm - N/A   Scattered Clouds
11:15 AM 52.2 °F - 37.2 °F 57% 30.24 in 10.0 mi NE 4.6 mph - N/A   Scattered Clouds
11:35 AM 53.1 °F - 37.0 °F 55% 30.24 in 10.0 mi North 5.8 mph - N/A   Clear
11:55 AM 53.6 °F - 36.7 °F 53% 30.24 in 10.0 mi North 5.8 mph - N/A   Clear
12:35 PM 56.8 °F - 34.2 °F 42% 30.23 in 10.0 mi NNW 8.1 mph - N/A   Scattered Clouds
12:55 PM 57.0 °F - 32.4 °F 39% 30.22 in 10.0 mi North 16.1 mph - N/A   Scattered Clouds
1:15 PM 58.8 °F - 28.2 °F 31% 30.22 in 10.0 mi North 11.5 mph 19.6 mph N/A   Scattered Clouds
2:15 PM 60.3 °F - 24.1 °F 25% 30.20 in 10.0 mi NW 10.4 mph 20.7 mph N/A   Scattered Clouds
2:35 PM 60.4 °F - 21.6 °F 22% 30.20 in 10.0 mi NNW 16.1 mph 19.6 mph N/A   Scattered Clouds
2:55 PM 62.4 °F - 20.1 °F 20% 30.20 in 10.0 mi NNW 12.7 mph 21.9 mph N/A   Clear
3:15 PM 61.7 °F - 19.9 °F 20% 30.19 in 10.0 mi NW 16.1 mph 23.0 mph N/A   Scattered Clouds
3:35 PM 61.5 °F - 19.9 °F 20% 30.19 in 10.0 mi North 10.4 mph 17.3 mph N/A   Scattered Clouds
3:55 PM 63.5 °F - 18.0 °F 17% 30.18 in 10.0 mi NNW 10.4 mph 25.3 mph N/A   Clear
4:15 PM 63.3 °F - 17.6 °F 17% 30.17 in 10.0 mi North 16.1 mph 21.9 mph N/A   Clear
4:35 PM 63.0 °F - 18.3 °F 18% 30.17 in 10.0 mi NNW 17.3 mph 20.7 mph N/A   Scattered Clouds
4:55 PM 62.2 °F - 17.4 °F 18% 30.17 in 10.0 mi North 15.0 mph 25.3 mph N/A   Scattered Clouds
5:15 PM 62.1 °F - 16.2 °F 17% 30.17 in 10.0 mi North 18.4 mph 25.3 mph N/A   Scattered Clouds
5:35 PM 62.2 °F - 14.7 °F 16% 30.17 in 10.0 mi North 16.1 mph 21.9 mph N/A   Clear
5:55 PM 62.1 °F - 13.8 °F 15% 30.16 in 10.0 mi NNW 15.0 mph 28.8 mph N/A   Clear
6:15 PM 62.2 °F - 14.7 °F 16% 30.15 in 10.0 mi North 18.4 mph 23.0 mph N/A   Clear
6:35 PM 62.8 °F - 15.3 °F 16% 30.17 in 10.0 mi NNW 17.3 mph - N/A   Clear
6:55 PM 61.9 °F - 14.0 °F 15% 30.16 in 10.0 mi North 17.3 mph 20.7 mph N/A   Clear
7:15 PM 60.3 °F - 15.4 °F 17% 30.16 in 10.0 mi North 13.8 mph 19.6 mph N/A   Clear
7:35 PM 59.9 °F - 15.3 °F 18% 30.15 in 10.0 mi North 13.8 mph 18.4 mph N/A   Clear
7:55 PM 58.6 °F - 14.0 °F 17% 30.15 in 10.0 mi North 10.4 mph 17.3 mph N/A   Clear
8:15 PM 56.1 °F - 16.7 °F 21% 30.15 in 10.0 mi North 8.1 mph - N/A   Clear
8:35 PM 53.6 °F - 17.8 °F 24% 30.15 in 10.0 mi NNE 5.8 mph - N/A   Clear
8:55 PM 52.2 °F - 19.4 °F 28% 30.15 in 10.0 mi Calm Calm - N/A   Clear
9:15 PM 51.4 °F - 19.4 °F 28% 30.15 in 10.0 mi Calm Calm - N/A   Clear
9:35 PM 50.9 °F - 19.6 °F 29% 30.16 in 10.0 mi Calm Calm - N/A   Clear
9:55 PM 51.1 °F - 19.4 °F 29% 30.17 in 10.0 mi East 4.6 mph - N/A   Clear
10:15 PM 49.1 °F - 21.7 °F 34% 30.17 in 10.0 mi East 4.6 mph - N/A   Clear
10:35 PM 49.3 °F - 23.5 °F 36% 30.16 in 10.0 mi ESE 4.6 mph - N/A   Clear
10:55 PM 47.3 °F - 26.4 °F 44% 30.17 in 10.0 mi SSE 5.8 mph - N/A   Scattered Clouds
11:15 PM 45.3 °F - 26.6 °F 48% 30.17 in 10.0 mi Calm Calm - N/A   Scattered Clouds
11:35 PM 45.9 °F 44.6 °F 24.4 °F 43% 30.16 in 10.0 mi SSE 3.5 mph - N/A   Clear
11:55 PM 44.2 °F 39.2 °F 24.1 °F 45% 30.15 in 10.0 mi SSE 9.2 mph - N/A   Clear